Terminal Aerodrome Forecast
Issued by NWS Key West, FL

Home | Current Version | Previous Version | Text Only | Print | Product List | Glossary On
Versions: 1 2 3 4 5 6 7 8 9 10 11 12 13 14 15 16 17 18
000
FTUS42 KKEY 202320
TAFEYW
TAF
KEYW 202320Z 2100/2124 09010G16KT P6SM SCT023 SCT110 SCT250
     FM210600 08013G19KT P6SM VCSH SCT023 BKN110 BKN250
     FM212100 09013G19KT P6SM FEW023 SCT110 BKN250=

USA.gov is the U.S. government's official web portal to all federal, state and local government web resources and services.